Observations for FALCONARA IT-AFB, Italy (LIPY)

LIPY 191950Z 19004KT CAVOK 17/14 Q1017  
LIPY 191850Z 18004KT CAVOK 18/15 Q1017  
LIPY 191750Z 15005KT 120V190 CAVOK 19/15 Q1017  
LIPY 191650Z 15005KT 110V180 CAVOK 19/15 Q1016  
LIPY 191550Z 12004KT 090V170 CAVOK 21/16 Q1016  
LIPY 191450Z 11003KT 050V150 CAVOK 22/15 Q1016  
LIPY 191350Z 07006KT 020V110 9999 FEW040 22/16 Q1016
LIPY 191250Z VRB05KT CAVOK 24/15 Q1016  
LIPY 191150Z VRB03KT CAVOK 24/12 Q1016  
LIPY 191050Z VRB04KT CAVOK 24/11 Q1017  
LIPY 190950Z VRB03KT CAVOK 23/12 Q1017  
LIPY 190850Z VRB01KT CAVOK 21/14 Q1017  
LIPY 190750Z VRB02KT CAVOK 18/14 Q1017  
LIPY 190650Z 24003KT 190V260 CAVOK 14/12 Q1017  
LIPY 190550Z 16003KT 130V190 CAVOK 12/11 Q1016  
LIPY 190450Z VRB02KT CAVOK 12/11 Q1016  
LIPY 190350Z AUTO 19003KT 140V240 9999 FEW056/// 12/10 Q1017
LIPY 190358Z 21004KT CAVOK 11/11 Q1016
LIPY 190350Z AUTO 19003KT 140V240 9999 FEW056 12/10 Q1017
LIPY 190250Z AUTO 19003KT 170V230 9999 NCD 12/11 Q1017  
LIPY 190150Z AUTO 17004KT 9999 FEW063/// 13/12 Q1017
LIPY 190150Z AUTO 17004KT 9999 FEW063 13/12 Q1017
LIPY 190050Z AUTO 21004KT 9999 FEW099/// 12/11 Q1017
LIPY 190050Z AUTO 21004KT 9999 FEW099 12/11 Q1017
LIPY 182350Z AUTO 17003KT 9999 NCD 13/12 Q1017  
LIPY 182250Z AUTO VRB02KT 9999 NCD 14/13 Q1017  
LIPY 182150Z 20005KT CAVOK 15/12 Q1017  
LIPY 182050Z 22005KT CAVOK 14/13 Q1017  
LIPY 181950Z 24005KT CAVOK 14/13 Q1017